Time;durP1;ratioP1;P1;durP2;ratioP2;P2;SDS_P1;SDS_P2;PMS_P1;PMS_P2;Temp;Humidity;BMP_temperature;BMP_pressure;BME280_temperature;BME280_humidity;BME280_pressure;Samples;Min_cycle;Max_cycle;Signal;HPM_P1;HPM_P2
2022/10/23 00:01:25;;;;;;;18.52;13.13;;;12.20;99.90;;;;;;5176171;27;20182;-66
2022/10/23 00:03:53;;;;;;;19.63;12.77;;;12.10;99.90;;;;;;5167072;27;20074;-64
2022/10/23 00:06:18;;;;;;;17.40;11.77;;;12.10;99.90;;;;;;5176296;27;20031;-64
2022/10/23 00:08:47;;;;;;;18.88;11.90;;;12.00;99.90;;;;;;5176056;27;20090;-65
2022/10/23 00:11:16;;;;;;;16.13;12.77;;;12.10;99.90;;;;;;5175827;27;20102;-66
2022/10/23 00:13:43;;;;;;;18.33;12.95;;;12.00;99.90;;;;;;5156216;27;20042;-64
2022/10/23 00:16:09;;;;;;;14.90;12.35;;;12.00;99.90;;;;;;5175964;27;20113;-65
2022/10/23 00:18:36;;;;;;;23.15;12.77;;;12.00;99.90;;;;;;5176376;27;20105;-65
2022/10/23 00:21:02;;;;;;;17.27;11.20;;;12.00;99.90;;;;;;5176210;27;20033;-65
2022/10/23 00:23:29;;;;;;;21.98;12.77;;;12.00;99.90;;;;;;5153082;27;20034;-65
2022/10/23 00:25:54;;;;;;;17.35;11.70;;;11.90;99.90;;;;;;5175995;27;20079;-64
2022/10/23 00:28:20;;;;;;;18.80;11.48;;;11.90;99.90;;;;;;5157001;27;20376;-64
2022/10/23 00:30:46;;;;;;;18.70;11.57;;;11.90;99.90;;;;;;5175975;27;20041;-66
2022/10/23 00:33:11;;;;;;;16.35;11.23;;;11.90;99.90;;;;;;5149634;27;20057;-66
2022/10/23 00:35:41;;;;;;;17.30;11.60;;;11.80;99.90;;;;;;5175920;27;20031;-65
2022/10/23 00:38:07;;;;;;;17.88;11.77;;;11.80;99.90;;;;;;5175316;27;20022;-65
2022/10/23 00:40:33;;;;;;;17.60;11.63;;;11.90;99.90;;;;;;5175906;27;20026;-65
2022/10/23 00:42:59;;;;;;;16.75;11.13;;;11.80;99.90;;;;;;5167393;27;20471;-65
2022/10/23 00:45:30;;;;;;;15.52;11.25;;;11.80;99.90;;;;;;5156705;27;20038;-65
2022/10/23 00:47:55;;;;;;;14.45;11.15;;;11.80;99.90;;;;;;5168192;27;20042;-65
2022/10/23 00:50:24;;;;;;;18.17;11.10;;;11.80;99.90;;;;;;5167976;27;20041;-65
2022/10/23 00:52:53;;;;;;;16.50;10.88;;;11.80;99.90;;;;;;5139058;27;20041;-65
2022/10/23 00:55:20;;;;;;;16.88;11.85;;;11.70;99.90;;;;;;5166734;27;20340;-65
2022/10/23 00:57:48;;;;;;;20.13;12.27;;;11.70;99.90;;;;;;5156586;27;20096;-66
2022/10/23 01:00:21;;;;;;;18.30;12.82;;;11.70;99.90;;;;;;5175446;27;20033;-66
2022/10/23 01:02:47;;;;;;;18.73;11.93;;;11.60;99.90;;;;;;5159835;27;20049;-65
2022/10/23 01:05:13;;;;;;;17.95;11.50;;;11.70;99.90;;;;;;5175431;27;20098;-67
2022/10/23 01:07:49;;;;;;;20.73;12.98;;;11.70;99.90;;;;;;5156363;27;20368;-66
2022/10/23 01:10:48;;;;;;;17.92;12.35;;;11.70;99.90;;;;;;5175154;27;20376;-65
2022/10/23 01:13:32;;;;;;;16.83;10.85;;;11.60;99.90;;;;;;5131850;27;20138;-66
2022/10/23 01:16:15;;;;;;;17.88;11.90;;;11.60;99.90;;;;;;5168662;27;20208;-65
2022/10/23 01:18:47;;;;;;;16.70;12.45;;;11.60;99.90;;;;;;5166227;27;20034;-65
2022/10/23 01:21:20;;;;;;;17.10;12.68;;;11.50;99.90;;;;;;5169772;27;20038;-65
2022/10/23 01:24:20;;;;;;;21.58;13.45;;;11.50;99.90;;;;;;5125844;27;20386;-65
2022/10/23 01:27:00;;;;;;;17.92;12.50;;;11.50;99.90;;;;;;5158783;27;20125;-65
2022/10/23 01:29:52;;;;;;;18.40;13.25;;;11.50;99.90;;;;;;5156220;27;20068;-65
2022/10/23 01:32:38;;;;;;;17.45;12.75;;;11.40;99.90;;;;;;5161703;27;20047;-65
2022/10/23 01:35:14;;;;;;;17.77;11.98;;;11.50;99.90;;;;;;5169184;27;20121;-68
2022/10/23 01:38:05;;;;;;;16.65;12.10;;;11.40;99.90;;;;;;5155626;27;20042;-65
2022/10/23 01:40:46;;;;;;;18.55;12.30;;;11.40;99.90;;;;;;5174542;27;20030;-65
2022/10/23 01:43:20;;;;;;;15.48;11.73;;;11.40;99.90;;;;;;5167146;27;20049;-65
2022/10/23 01:45:54;;;;;;;20.23;12.55;;;11.50;99.90;;;;;;5174301;27;20042;-65
2022/10/23 01:48:27;;;;;;;15.35;12.68;;;11.50;99.90;;;;;;5174433;27;20052;-65
2022/10/23 01:50:57;;;;;;;15.37;12.13;;;11.50;99.90;;;;;;5174388;27;20030;-65
2022/10/23 01:53:26;;;;;;;15.18;11.32;;;11.50;99.90;;;;;;5153040;27;20078;-65
2022/10/23 01:55:54;;;;;;;15.85;11.48;;;11.50;99.90;;;;;;5155485;27;20328;-65
2022/10/23 01:58:20;;;;;;;14.65;11.77;;;11.50;99.90;;;;;;5174214;27;20106;-65
2022/10/23 02:00:48;;;;;;;15.75;11.48;;;11.50;99.90;;;;;;5158133;27;20683;-65
2022/10/23 02:03:16;;;;;;;17.73;11.55;;;11.50;99.90;;;;;;5153681;27;20101;-65
2022/10/23 02:05:43;;;;;;;18.20;11.52;;;11.40;99.90;;;;;;5173944;27;20069;-66
2022/10/23 02:08:08;;;;;;;15.80;12.18;;;11.40;99.90;;;;;;5154855;27;20388;-65
2022/10/23 02:10:48;;;;;;;17.80;12.63;;;11.50;99.90;;;;;;5155302;27;20134;-65
2022/10/23 02:13:37;;;;;;;17.73;11.65;;;11.40;99.90;;;;;;5143368;27;20073;-65
2022/10/23 02:16:27;;;;;;;15.88;11.50;;;11.40;99.90;;;;;;5154710;27;20073;-65
2022/10/23 02:19:16;;;;;;;17.30;13.15;;;11.40;99.90;;;;;;5173782;27;20042;-65
2022/10/23 02:21:53;;;;;;;18.52;12.27;;;11.40;99.90;;;;;;5153226;27;20042;-66
2022/10/23 02:24:36;;;;;;;17.25;11.23;;;11.40;99.90;;;;;;5158040;27;20042;-65
2022/10/23 02:27:08;;;;;;;16.70;11.88;;;11.40;99.90;;;;;;5146933;27;20052;-65
2022/10/23 02:29:39;;;;;;;13.85;11.65;;;11.40;99.90;;;;;;5173765;27;20088;-65
2022/10/23 02:32:07;;;;;;;18.08;12.73;;;11.40;99.90;;;;;;5165594;27;20031;-65
2022/10/23 02:34:33;;;;;;;16.80;12.45;;;11.40;99.90;;;;;;5126448;27;20087;-65
2022/10/23 02:36:59;;;;;;;17.73;12.43;;;11.40;99.90;;;;;;5153019;27;20053;-65
2022/10/23 02:39:26;;;;;;;16.30;12.32;;;11.40;99.90;;;;;;5173167;27;20392;-67
2022/10/23 02:42:04;;;;;;;14.80;12.18;;;11.40;99.90;;;;;;5150408;27;20664;-66
2022/10/23 02:44:43;;;;;;;16.58;12.90;;;11.40;99.90;;;;;;5138079;27;20463;-65
2022/10/23 02:47:29;;;;;;;18.42;13.98;;;11.40;99.90;;;;;;5166493;27;20093;-65
2022/10/23 02:50:16;;;;;;;18.13;13.57;;;11.40;99.90;;;;;;5162235;27;20086;-65
2022/10/23 02:52:54;;;;;;;20.88;13.40;;;11.40;99.90;;;;;;5140075;27;20053;-65
2022/10/23 02:55:38;;;;;;;16.42;12.82;;;11.40;99.90;;;;;;5164766;27;20038;-65
2022/10/23 02:58:10;;;;;;;24.48;13.32;;;11.40;99.90;;;;;;5173127;27;20121;-65
2022/10/23 03:00:39;;;;;;;17.77;13.65;;;11.40;99.90;;;;;;5173072;27;20099;-66
2022/10/23 03:03:15;;;;;;;20.42;13.20;;;11.40;99.90;;;;;;5151499;27;20107;-65
2022/10/23 03:05:43;;;;;;;18.67;14.10;;;11.40;99.90;;;;;;5172946;27;20065;-65
2022/10/23 03:08:11;;;;;;;23.90;14.07;;;11.40;99.90;;;;;;5153835;27;20085;-65
2022/10/23 03:10:37;;;;;;;17.30;13.30;;;11.40;99.90;;;;;;5160445;27;20081;-66
2022/10/23 03:13:03;;;;;;;18.83;13.80;;;11.40;99.90;;;;;;5147077;27;20106;-65
2022/10/23 03:15:28;;;;;;;19.92;13.73;;;11.40;99.90;;;;;;5172530;27;20058;-65
2022/10/23 03:17:54;;;;;;;18.38;14.05;;;11.30;99.90;;;;;;5154310;27;20034;-65
2022/10/23 03:20:20;;;;;;;19.13;14.70;;;11.30;99.90;;;;;;5172395;27;20072;-65
2022/10/23 03:22:45;;;;;;;18.80;13.88;;;11.30;99.90;;;;;;5153230;27;20038;-65
2022/10/23 03:25:11;;;;;;;19.58;14.40;;;11.30;99.90;;;;;;5138723;27;20038;-66
2022/10/23 03:27:37;;;;;;;19.30;14.13;;;11.30;99.90;;;;;;5172700;27;20030;-65
2022/10/23 03:30:04;;;;;;;19.02;13.80;;;11.30;99.90;;;;;;5153612;27;20530;-66
2022/10/23 03:32:29;;;;;;;22.90;15.10;;;11.20;99.90;;;;;;5157822;27;20118;-65
2022/10/23 03:34:55;;;;;;;23.13;14.75;;;11.20;99.90;;;;;;5164062;27;20113;-65
2022/10/23 03:37:21;;;;;;;19.33;13.57;;;11.30;99.90;;;;;;5153416;27;20517;-65
2022/10/23 03:39:47;;;;;;;21.50;15.15;;;11.30;99.90;;;;;;5172472;27;20073;-66
2022/10/23 03:42:12;;;;;;;24.17;15.23;;;11.20;99.90;;;;;;5166977;27;20560;-66
2022/10/23 03:44:38;;;;;;;19.33;14.73;;;11.20;99.90;;;;;;5172453;27;20030;-65
2022/10/23 03:47:04;;;;;;;19.40;13.63;;;11.20;99.90;;;;;;5153678;27;20046;-65
2022/10/23 03:49:29;;;;;;;20.27;14.52;;;11.20;99.90;;;;;;5172355;27;20109;-64
2022/10/23 03:51:55;;;;;;;22.33;14.90;;;11.20;99.90;;;;;;5149428;27;20460;-65
2022/10/23 03:54:23;;;;;;;17.77;14.45;;;11.20;99.90;;;;;;5167404;27;20034;-66
2022/10/23 03:56:48;;;;;;;18.75;14.27;;;11.20;99.90;;;;;;5136334;27;20049;-64
2022/10/23 03:59:15;;;;;;;23.05;15.32;;;11.20;99.90;;;;;;5171699;27;20034;-66
2022/10/23 04:01:40;;;;;;;20.58;15.45;;;11.20;99.90;;;;;;5171833;27;20425;-65
2022/10/23 04:04:06;;;;;;;20.13;14.45;;;11.20;99.90;;;;;;5165600;27;20447;-65
2022/10/23 04:06:32;;;;;;;19.98;14.63;;;11.10;99.90;;;;;;5153657;27;20447;-65
2022/10/23 04:08:57;;;;;;;19.65;14.63;;;11.10;99.90;;;;;;5171901;27;20038;-65
2022/10/23 04:11:23;;;;;;;19.90;14.38;;;11.10;99.90;;;;;;5171739;27;20121;-65
2022/10/23 04:13:48;;;;;;;22.45;14.13;;;11.10;99.90;;;;;;5127278;27;20055;-66
2022/10/23 04:16:14;;;;;;;20.25;14.68;;;11.10;99.90;;;;;;5149330;27;20261;-65
2022/10/23 04:18:41;;;;;;;21.67;14.85;;;11.10;99.90;;;;;;5172384;27;20022;-66
2022/10/23 04:21:07;;;;;;;20.98;14.35;;;11.10;99.90;;;;;;5172150;27;20415;-65
2022/10/23 04:23:32;;;;;;;19.63;14.25;;;11.00;99.90;;;;;;5153148;27;20050;-65
2022/10/23 04:25:58;;;;;;;19.92;15.43;;;11.00;99.90;;;;;;5140825;27;20462;-65
2022/10/23 04:28:24;;;;;;;19.10;13.95;;;11.00;99.90;;;;;;5170359;27;20038;-65
2022/10/23 04:30:50;;;;;;;22.15;14.38;;;11.00;99.90;;;;;;5171803;27;20050;-66
2022/10/23 04:33:16;;;;;;;21.17;16.30;;;11.00;99.90;;;;;;5149851;27;20039;-65
2022/10/23 04:35:42;;;;;;;17.90;14.38;;;11.00;99.90;;;;;;5153484;27;20042;-66
2022/10/23 04:38:08;;;;;;;24.15;14.85;;;11.00;99.90;;;;;;5174599;27;20036;-65
2022/10/23 04:40:33;;;;;;;22.38;14.73;;;11.00;99.90;;;;;;5157059;27;20375;-67
2022/10/23 04:42:59;;;;;;;19.98;13.95;;;11.00;99.90;;;;;;5171381;27;20070;-67
2022/10/23 04:45:25;;;;;;;19.45;14.45;;;11.10;99.90;;;;;;5156969;27;20340;-65
2022/10/23 04:47:52;;;;;;;20.42;15.57;;;11.10;99.90;;;;;;5156898;27;20049;-65
2022/10/23 04:50:18;;;;;;;19.20;14.50;;;11.00;99.90;;;;;;5175498;27;20068;-65
2022/10/23 04:52:44;;;;;;;20.75;14.00;;;11.00;99.90;;;;;;5144024;27;20058;-65
2022/10/23 04:55:09;;;;;;;22.23;14.88;;;11.00;99.90;;;;;;5147111;27;20068;-65
2022/10/23 04:57:35;;;;;;;18.92;14.25;;;11.00;99.90;;;;;;5175183;27;20030;-66
2022/10/23 05:00:02;;;;;;;19.17;14.80;;;11.00;99.90;;;;;;5175236;27;20038;-65
2022/10/23 05:02:28;;;;;;;18.67;14.23;;;11.00;99.90;;;;;;5145376;27;20930;-65
2022/10/23 05:04:53;;;;;;;17.42;14.23;;;11.00;99.90;;;;;;5168229;27;20042;-65
2022/10/23 05:07:19;;;;;;;26.52;13.85;;;11.00;99.90;;;;;;5167294;27;20071;-65
2022/10/23 05:09:44;;;;;;;24.77;14.35;;;10.90;99.90;;;;;;5174512;27;20030;-67
2022/10/23 05:12:10;;;;;;;19.75;14.07;;;10.90;99.90;;;;;;5167081;27;20049;-66
2022/10/23 05:14:35;;;;;;;19.90;13.52;;;10.80;99.90;;;;;;5167987;27;20061;-65
2022/10/23 05:17:14;;;;;;;23.65;15.00;;;10.90;99.90;;;;;;5156077;27;20175;-65
2022/10/23 05:19:46;;;;;;;21.88;14.40;;;10.90;99.90;;;;;;5156173;27;20050;-66
2022/10/23 05:22:13;;;;;;;20.75;15.15;;;10.90;99.90;;;;;;5167115;27;20043;-65
2022/10/23 05:24:39;;;;;;;21.35;14.95;;;11.00;99.90;;;;;;5131876;27;20123;-65
2022/10/23 05:27:04;;;;;;;20.55;14.10;;;10.90;99.90;;;;;;5174608;27;20335;-65
2022/10/23 05:29:30;;;;;;;21.55;13.88;;;11.00;99.90;;;;;;5174905;27;20034;-65
2022/10/23 05:32:00;;;;;;;21.50;14.25;;;10.90;99.90;;;;;;5153475;27;20383;-65
2022/10/23 05:34:28;;;;;;;19.35;13.30;;;11.00;99.90;;;;;;5126752;27;20046;-65
2022/10/23 05:36:53;;;;;;;23.65;14.43;;;11.00;99.90;;;;;;5172718;27;20134;-65
2022/10/23 05:39:19;;;;;;;24.02;14.75;;;11.00;99.90;;;;;;5168053;27;20141;-65
2022/10/23 05:41:45;;;;;;;19.10;14.07;;;11.00;99.90;;;;;;5147815;27;20070;-65
2022/10/23 05:44:10;;;;;;;18.70;13.23;;;11.10;99.90;;;;;;5171011;27;20034;-66
2022/10/23 05:46:43;;;;;;;21.92;13.60;;;11.00;99.90;;;;;;5174502;27;20077;-65
2022/10/23 05:49:09;;;;;;;18.95;13.23;;;11.00;99.90;;;;;;5155481;27;20127;-65
2022/10/23 05:51:39;;;;;;;24.40;15.25;;;11.20;99.90;;;;;;5174330;27;20423;-67
2022/10/23 05:54:09;;;;;;;17.90;13.20;;;11.10;99.90;;;;;;5167213;27;20042;-67
2022/10/23 05:56:36;;;;;;;21.08;13.52;;;11.10;99.90;;;;;;5155593;27;20492;-66
2022/10/23 05:59:02;;;;;;;22.98;14.88;;;11.10;99.90;;;;;;5173991;27;20038;-66
2022/10/23 06:01:27;;;;;;;22.92;14.32;;;11.10;99.90;;;;;;5174320;27;20034;-66
2022/10/23 06:03:53;;;;;;;23.15;14.48;;;11.20;99.90;;;;;;5132519;27;20092;-65
2022/10/23 06:06:19;;;;;;;21.05;14.13;;;11.10;99.90;;;;;;5172391;27;20033;-65
2022/10/23 06:08:45;;;;;;;17.77;13.32;;;11.10;99.90;;;;;;5173988;27;20411;-67
2022/10/23 06:11:13;;;;;;;24.65;14.65;;;11.20;99.90;;;;;;5173885;27;20072;-67
2022/10/23 06:13:41;;;;;;;21.48;14.50;;;11.20;99.90;;;;;;5121923;27;20146;-65
2022/10/23 06:16:08;;;;;;;21.48;13.95;;;11.20;99.90;;;;;;5130761;27;20096;-65
2022/10/23 06:18:34;;;;;;;18.58;13.85;;;11.20;99.90;;;;;;5132582;27;20031;-66
2022/10/23 06:21:00;;;;;;;19.42;14.10;;;11.30;99.90;;;;;;5131032;27;20031;-67
2022/10/23 06:23:26;;;;;;;22.55;14.38;;;11.20;99.90;;;;;;5115865;27;20039;-65
2022/10/23 06:25:55;;;;;;;21.30;13.95;;;11.20;99.90;;;;;;5132278;27;20043;-67
2022/10/23 06:28:21;;;;;;;19.42;13.82;;;11.30;99.90;;;;;;5130843;27;20401;-68
2022/10/23 06:30:47;;;;;;;20.70;13.45;;;11.30;99.90;;;;;;5131857;27;20058;-66
2022/10/23 06:33:12;;;;;;;19.90;14.02;;;11.30;99.90;;;;;;5111884;27;20039;-66
2022/10/23 06:35:38;;;;;;;17.10;12.38;;;11.30;99.90;;;;;;5130581;27;20050;-65
2022/10/23 06:38:04;;;;;;;20.58;13.77;;;11.30;99.90;;;;;;5131807;27;20046;-67
2022/10/23 06:40:29;;;;;;;20.52;14.02;;;11.30;99.90;;;;;;5131371;27;20348;-65
2022/10/23 06:42:55;;;;;;;19.38;13.73;;;11.40;99.90;;;;;;5129100;27;20146;-66
2022/10/23 06:45:21;;;;;;;21.42;13.90;;;11.30;99.90;;;;;;5130625;27;20125;-66
2022/10/23 06:47:49;;;;;;;18.40;13.75;;;11.40;99.90;;;;;;5113133;27;20122;-66
2022/10/23 06:50:15;;;;;;;18.08;12.57;;;11.40;99.90;;;;;;5131847;27;20038;-66
2022/10/23 06:52:40;;;;;;;17.90;13.38;;;11.40;99.90;;;;;;5122621;27;20043;-69
2022/10/23 06:55:06;;;;;;;20.00;13.43;;;11.50;99.90;;;;;;5091222;28;20111;-68
2022/10/23 06:57:33;;;;;;;18.48;13.10;;;11.50;99.90;;;;;;5092130;28;20464;-67
2022/10/23 06:59:58;;;;;;;18.70;13.40;;;11.50;99.90;;;;;;5092883;27;20102;-66
2022/10/23 07:02:24;;;;;;;23.98;14.45;;;11.60;99.90;;;;;;5090929;28;20460;-68
2022/10/23 07:04:49;;;;;;;19.38;13.52;;;11.60;99.90;;;;;;5092080;28;20425;-68
2022/10/23 07:07:15;;;;;;;16.98;12.10;;;11.60;99.90;;;;;;5091599;27;20085;-68
2022/10/23 07:09:40;;;;;;;16.63;12.73;;;11.70;99.90;;;;;;5097228;28;20432;-67
2022/10/23 07:12:06;;;;;;;18.77;13.18;;;11.70;99.90;;;;;;5102200;27;20907;-69
2022/10/23 07:14:32;;;;;;;19.38;13.18;;;11.70;99.90;;;;;;5150801;27;20039;-69
2022/10/23 07:16:58;;;;;;;17.75;12.60;;;11.70;99.90;;;;;;5133315;27;20054;-66
2022/10/23 07:19:24;;;;;;;22.08;12.93;;;11.70;99.90;;;;;;5151815;27;20052;-66
2022/10/23 07:21:50;;;;;;;20.38;13.48;;;11.70;99.90;;;;;;5151349;27;20301;-66
2022/10/23 07:24:15;;;;;;;16.98;12.45;;;11.80;99.90;;;;;;5149063;27;20114;-66
2022/10/23 07:26:43;;;;;;;19.58;13.88;;;11.80;99.90;;;;;;5151260;27;20129;-67
2022/10/23 07:29:08;;;;;;;18.83;13.32;;;11.80;99.90;;;;;;5151114;27;20522;-66
2022/10/23 07:31:34;;;;;;;19.23;12.82;;;11.80;99.90;;;;;;5148698;27;20156;-68
2022/10/23 07:33:59;;;;;;;22.33;13.02;;;11.80;99.90;;;;;;5130820;27;20359;-66
2022/10/23 07:36:25;;;;;;;18.23;12.63;;;11.80;99.90;;;;;;5151410;27;20125;-66
2022/10/23 07:38:51;;;;;;;24.90;13.18;;;11.90;99.90;;;;;;5153770;27;20138;-68
2022/10/23 07:41:17;;;;;;;16.65;12.65;;;11.90;99.90;;;;;;5151494;27;20034;-69
2022/10/23 07:43:42;;;;;;;16.05;12.10;;;11.90;99.90;;;;;;5150136;27;20103;-66
2022/10/23 07:46:08;;;;;;;15.18;12.32;;;12.00;99.90;;;;;;5132749;27;20039;-67
2022/10/23 07:48:38;;;;;;;19.70;13.02;;;12.00;99.90;;;;;;5151000;27;20045;-67
2022/10/23 07:51:07;;;;;;;21.58;12.93;;;12.10;99.90;;;;;;5151042;27;20054;-68
2022/10/23 07:53:33;;;;;;;18.90;12.25;;;12.20;99.90;;;;;;5148740;27;20038;-66
2022/10/23 07:56:09;;;;;;;19.88;13.20;;;12.10;99.90;;;;;;5151183;27;20041;-66
2022/10/23 07:58:35;;;;;;;17.25;12.63;;;12.20;99.90;;;;;;5132746;27;20042;-67
2022/10/23 08:01:03;;;;;;;16.95;12.30;;;12.20;99.90;;;;;;5150917;27;20050;-67
2022/10/23 08:03:31;;;;;;;20.05;12.43;;;12.20;99.90;;;;;;5113302;27;20054;-67
2022/10/23 08:05:57;;;;;;;17.30;12.43;;;12.30;99.90;;;;;;5150929;27;20034;-68
2022/10/23 08:08:23;;;;;;;17.85;12.27;;;12.30;99.90;;;;;;5132280;27;20335;-64
2022/10/23 08:10:52;;;;;;;17.10;11.70;;;12.30;99.90;;;;;;5151020;27;20166;-66
2022/10/23 08:13:19;;;;;;;16.92;11.43;;;12.40;99.90;;;;;;5148272;27;20046;-67
2022/10/23 08:15:46;;;;;;;17.30;11.60;;;12.40;99.90;;;;;;5126083;27;20414;-68
2022/10/23 08:18:12;;;;;;;17.88;12.07;;;12.50;99.90;;;;;;5153325;27;20037;-66
2022/10/23 08:20:42;;;;;;;17.70;12.13;;;12.50;99.90;;;;;;5154735;27;20038;-74
2022/10/23 08:23:11;;;;;;;15.55;11.68;;;12.60;99.90;;;;;;5152605;27;20137;-72
2022/10/23 08:25:37;;;;;;;17.30;11.88;;;12.70;99.90;;;;;;5152137;27;20459;-66
2022/10/23 08:28:04;;;;;;;18.83;11.77;;;12.70;99.90;;;;;;5136045;27;20033;-67
2022/10/23 08:30:29;;;;;;;18.75;11.95;;;12.80;99.90;;;;;;5118840;27;20116;-65
2022/10/23 08:32:55;;;;;;;16.88;11.50;;;12.80;99.90;;;;;;5152341;27;20059;-65
2022/10/23 08:35:21;;;;;;;15.95;11.20;;;12.90;99.90;;;;;;5129815;27;20027;-66
2022/10/23 08:37:47;;;;;;;15.80;10.95;;;13.00;99.90;;;;;;5120676;27;20035;-66
2022/10/23 08:40:22;;;;;;;16.48;11.93;;;13.00;99.90;;;;;;5143647;27;20429;-66
2022/10/23 08:42:59;;;;;;;16.45;11.93;;;13.10;99.90;;;;;;5119189;27;20042;-66
2022/10/23 08:45:51;;;;;;;19.42;10.82;;;13.20;99.90;;;;;;5127399;27;20067;-65
2022/10/23 08:48:30;;;;;;;15.65;10.90;;;13.20;99.90;;;;;;5151407;27;20066;-66
2022/10/23 08:51:04;;;;;;;16.00;10.80;;;13.20;99.90;;;;;;5117028;27;20420;-66
2022/10/23 08:53:52;;;;;;;18.27;11.13;;;13.30;99.90;;;;;;5143972;27;20053;-67
2022/10/23 08:56:32;;;;;;;19.85;12.32;;;13.40;99.90;;;;;;5148543;27;20043;-67
2022/10/23 08:59:27;;;;;;;19.33;11.90;;;13.50;99.90;;;;;;5132259;27;20073;-66
2022/10/23 09:02:14;;;;;;;13.80;11.35;;;13.50;99.90;;;;;;5136721;27;20070;-65
2022/10/23 09:04:43;;;;;;;14.05;10.10;;;13.60;99.90;;;;;;5130583;27;20042;-66
2022/10/23 09:07:22;;;;;;;16.52;10.95;;;13.60;99.90;;;;;;5131296;27;20046;-66
2022/10/23 09:10:33;;;;;;;13.38;10.00;;;13.70;99.90;;;;;;5128618;27;20525;-65
2022/10/23 09:13:27;;;;;;;17.80;10.30;;;13.80;99.90;;;;;;5099120;27;20050;-65
2022/10/23 09:16:06;;;;;;;13.35;10.15;;;13.80;99.90;;;;;;5146894;27;20034;-67
2022/10/23 09:18:33;;;;;;;16.25;11.35;;;13.80;99.90;;;;;;5147374;27;20344;-65
2022/10/23 09:20:59;;;;;;;15.50;11.05;;;13.90;99.90;;;;;;5116933;27;20043;-66
2022/10/23 09:23:24;;;;;;;14.27;9.82;;;13.90;99.90;;;;;;5114952;27;20587;-68
2022/10/23 09:25:54;;;;;;;12.43;8.90;;;14.00;99.90;;;;;;5113433;27;20059;-65
2022/10/23 09:28:40;;;;;;;13.43;9.45;;;14.10;99.90;;;;;;5151056;27;20073;-66
2022/10/23 09:31:10;;;;;;;14.63;8.68;;;14.10;99.90;;;;;;5153664;27;20042;-66
2022/10/23 09:33:36;;;;;;;14.43;8.82;;;14.20;99.90;;;;;;5142177;27;20143;-67
2022/10/23 09:36:04;;;;;;;12.82;8.60;;;14.20;99.90;;;;;;5142803;27;20451;-67
2022/10/23 09:38:35;;;;;;;16.17;8.73;;;14.30;99.90;;;;;;5125250;27;20417;-67
2022/10/23 09:41:06;;;;;;;14.10;8.75;;;14.30;99.90;;;;;;5141180;27;20035;-66
2022/10/23 09:43:32;;;;;;;14.75;8.18;;;14.30;99.90;;;;;;5128929;27;20050;-67
2022/10/23 09:46:01;;;;;;;13.52;9.10;;;14.30;99.90;;;;;;5152462;27;20138;-69
2022/10/23 09:48:28;;;;;;;13.80;8.23;;;14.40;99.90;;;;;;5153171;27;20038;-68
2022/10/23 09:51:02;;;;;;;11.40;7.57;;;14.40;99.90;;;;;;5153121;27;20053;-67
2022/10/23 09:53:38;;;;;;;;;;;14.50;99.90;;;;;;5152344;27;20186;-67
2022/10/23 09:56:10;;;;;;;12.75;8.45;;;14.50;99.90;;;;;;5122987;27;20234;-68
2022/10/23 09:58:42;;;;;;;10.88;8.18;;;14.50;99.90;;;;;;5126024;27;20451;-68
2022/10/23 10:01:25;;;;;;;13.68;8.70;;;14.60;99.90;;;;;;5150277;27;20041;-67
2022/10/23 10:03:51;;;;;;;9.17;7.60;;;14.70;99.90;;;;;;5104706;27;20047;-66
2022/10/23 10:06:26;;;;;;;12.95;7.78;;;14.70;99.90;;;;;;5150928;27;20465;-68
2022/10/23 10:08:57;;;;;;;12.95;8.07;;;14.80;99.90;;;;;;5151855;27;20127;-66
2022/10/23 10:11:52;;;;;;;12.43;7.47;;;14.80;99.90;;;;;;5152473;27;20433;-67
2022/10/23 10:15:06;;;;;;;12.30;8.45;;;14.90;99.90;;;;;;5149022;27;20397;-67
2022/10/23 10:17:40;;;;;;;10.95;7.47;;;14.90;99.90;;;;;;5096657;27;20058;-66
2022/10/23 10:20:58;;;;;;;10.60;7.88;;;15.00;99.90;;;;;;5153576;27;20030;-68
2022/10/23 10:23:42;;;;;;;11.00;6.80;;;15.00;99.90;;;;;;5095182;27;20074;-67
2022/10/23 10:26:41;;;;;;;9.30;7.22;;;15.10;99.90;;;;;;5154045;27;20122;-67
2022/10/23 10:29:13;;;;;;;9.52;6.82;;;15.10;99.90;;;;;;5153104;27;20095;-68
2022/10/23 10:32:10;;;;;;;10.27;6.53;;;15.10;99.90;;;;;;5152911;27;20489;-66
2022/10/23 10:34:54;;;;;;;10.02;6.63;;;15.10;99.90;;;;;;5145718;27;20249;-67
2022/10/23 10:37:45;;;;;;;10.65;6.53;;;15.10;99.90;;;;;;5128167;27;20027;-66
2022/10/23 10:40:32;;;;;;;9.07;6.30;;;15.20;99.90;;;;;;5128728;27;20046;-67
2022/10/23 10:43:15;;;;;;;13.60;6.47;;;15.20;99.90;;;;;;5140178;27;20193;-66
2022/10/23 10:45:47;;;;;;;9.05;6.22;;;15.20;99.90;;;;;;5153301;27;20184;-67
2022/10/23 10:48:25;;;;;;;9.02;5.68;;;15.20;99.90;;;;;;5152788;27;20049;-66
2022/10/23 10:50:59;;;;;;;11.93;6.43;;;15.20;99.90;;;;;;5124678;27;20034;-67
2022/10/23 10:53:40;;;;;;;9.85;6.65;;;15.20;99.90;;;;;;5133796;27;20046;-68
2022/10/23 10:56:11;;;;;;;9.75;6.45;;;15.10;99.90;;;;;;5129653;27;20038;-67
2022/10/23 10:58:45;;;;;;;9.15;6.13;;;15.10;99.90;;;;;;5133967;27;20050;-67
2022/10/23 11:01:38;;;;;;;10.68;6.20;;;15.10;99.90;;;;;;5131501;27;20034;-66
2022/10/23 11:04:34;;;;;;;10.07;6.10;;;15.10;99.90;;;;;;5111693;27;20050;-68
2022/10/23 11:07:06;;;;;;;10.88;5.93;;;15.10;99.90;;;;;;5144706;27;20121;-67
2022/10/23 11:09:32;;;;;;;9.40;5.78;;;15.10;99.90;;;;;;5151973;27;20043;-66
2022/10/23 11:11:58;;;;;;;9.13;5.93;;;15.10;99.90;;;;;;5151534;27;20099;-66
2022/10/23 11:14:29;;;;;;;9.35;6.00;;;15.10;99.90;;;;;;5151482;27;20053;-66
2022/10/23 11:17:12;;;;;;;12.18;6.38;;;15.10;99.90;;;;;;5113232;27;20043;-67
2022/10/23 11:19:48;;;;;;;10.77;5.75;;;15.10;99.90;;;;;;5126723;27;20081;-67
2022/10/23 11:22:31;;;;;;;8.90;5.20;;;15.20;99.90;;;;;;5129428;27;20035;-67
2022/10/23 11:25:40;;;;;;;11.23;5.82;;;15.20;99.90;;;;;;5129655;27;20121;-69
2022/10/23 11:28:17;;;;;;;9.63;5.50;;;15.30;99.90;;;;;;5093977;27;20150;-68
2022/10/23 11:31:18;;;;;;;8.85;5.63;;;15.30;99.90;;;;;;5150994;27;20241;-67
2022/10/23 11:34:11;;;;;;;10.02;5.10;;;15.30;99.90;;;;;;5125196;27;20097;-68
2022/10/23 11:36:55;;;;;;;9.77;5.72;;;15.40;99.90;;;;;;5121351;27;20035;-69
2022/10/23 11:39:26;;;;;;;9.03;4.70;;;15.30;99.90;;;;;;5101939;27;20042;-68
2022/10/23 11:41:56;;;;;;;8.65;5.20;;;15.40;99.90;;;;;;5129098;27;20765;-68
2022/10/23 11:44:37;;;;;;;6.60;4.40;;;15.40;99.90;;;;;;5121606;27;20066;-69
2022/10/23 11:47:26;;;;;;;10.50;5.20;;;15.40;99.90;;;;;;5154534;27;20099;-68
2022/10/23 11:50:07;;;;;;;7.43;4.60;;;15.40;99.90;;;;;;5131797;27;20039;-69
2022/10/23 11:52:35;;;;;;;11.05;4.68;;;15.40;99.90;;;;;;5133962;27;20458;-67
2022/10/23 11:55:17;;;;;;;10.07;4.50;;;15.30;99.90;;;;;;5136817;27;20039;-67
2022/10/23 11:57:45;;;;;;;9.80;4.53;;;15.40;99.90;;;;;;5128801;27;20034;-67
2022/10/23 12:00:20;;;;;;;7.95;4.25;;;15.40;99.90;;;;;;5133678;27;20038;-67
2022/10/23 12:02:51;;;;;;;7.90;4.65;;;15.30;99.90;;;;;;5154680;27;20464;-68
2022/10/23 12:05:36;;;;;;;10.30;4.95;;;15.40;99.90;;;;;;5155390;27;20500;-68
2022/10/23 12:08:05;;;;;;;9.05;4.70;;;15.40;99.90;;;;;;5136158;27;20034;-67
2022/10/23 12:10:42;;;;;;;9.82;4.93;;;15.40;99.90;;;;;;5136475;27;20111;-68
2022/10/23 12:13:42;;;;;;;8.35;4.53;;;15.50;99.90;;;;;;5133872;27;20043;-68
2022/10/23 12:16:08;;;;;;;8.18;4.72;;;15.50;99.90;;;;;;5155266;27;20502;-68
2022/10/23 12:18:45;;;;;;;9.60;4.88;;;15.50;99.90;;;;;;5155462;27;20062;-68
2022/10/23 12:21:33;;;;;;;9.82;5.65;;;15.60;99.90;;;;;;5155307;27;20035;-67
2022/10/23 12:24:22;;;;;;;13.02;6.05;;;15.60;99.90;;;;;;5135119;27;20042;-68
2022/10/23 12:27:00;;;;;;;11.30;5.13;;;15.60;99.90;;;;;;5130193;27;20051;-68
2022/10/23 12:29:42;;;;;;;9.35;4.65;;;15.50;99.90;;;;;;5155496;27;20039;-68
2022/10/23 12:32:57;;;;;;;9.80;4.90;;;15.50;99.90;;;;;;5128726;27;20456;-69
2022/10/23 12:35:52;;;;;;;10.75;4.93;;;15.50;99.90;;;;;;5085798;27;20455;-67
2022/10/23 12:38:21;;;;;;;7.88;4.70;;;15.50;99.90;;;;;;5162722;27;20096;-68
2022/10/23 12:41:13;;;;;;;8.90;5.53;;;15.60;99.90;;;;;;5157044;27;20057;-67
2022/10/23 12:43:40;;;;;;;12.73;6.90;;;15.60;99.90;;;;;;5132599;27;20433;-67
2022/10/23 12:46:27;;;;;;;10.07;5.97;;;15.60;99.90;;;;;;5142391;27;20034;-68
2022/10/23 12:48:55;;;;;;;10.32;5.40;;;15.70;99.90;;;;;;5135767;27;20038;-68
2022/10/23 12:51:31;;;;;;;9.10;5.80;;;15.80;99.90;;;;;;5135666;27;20038;-68
2022/10/23 12:53:57;;;;;;;9.90;5.35;;;15.80;99.90;;;;;;5122138;27;20062;-68
2022/10/23 12:56:24;;;;;;;8.10;6.07;;;15.80;99.90;;;;;;5154929;27;20426;-69